createdAt,value
2023-03-07T00:02:29.009Z,-0.45
2023-03-07T00:05:45.613Z,-0.48
2023-03-07T00:09:04.449Z,-0.50
2023-03-07T00:12:23.048Z,-0.50
2023-03-07T00:15:39.291Z,-0.54
2023-03-07T00:18:55.676Z,-0.56
2023-03-07T00:22:14.158Z,-0.65
2023-03-07T00:25:30.246Z,-0.63
2023-03-07T00:28:46.898Z,-0.61
2023-03-07T00:32:03.153Z,-0.58
2023-03-07T00:35:19.847Z,-0.69
2023-03-07T00:38:37.599Z,-0.69
2023-03-07T00:41:55.156Z,-0.72
2023-03-07T00:45:14.303Z,-0.70
2023-03-07T00:48:31.169Z,-0.71
2023-03-07T00:51:47.380Z,-0.68
2023-03-07T00:55:03.852Z,-0.67
2023-03-07T00:58:20.052Z,-0.74
2023-03-07T01:01:38.042Z,-0.77
2023-03-07T01:04:54.620Z,-0.71
2023-03-07T01:08:10.829Z,-0.68
2023-03-07T01:11:27.494Z,-0.64
2023-03-07T01:14:43.929Z,-0.68
2023-03-07T01:18:01.097Z,-0.89
2023-03-07T01:21:26.395Z,-0.92
2023-03-07T01:24:43.128Z,-0.89
2023-03-07T01:28:01.575Z,-0.88
2023-03-07T01:31:18.742Z,-0.86
2023-03-07T01:34:35.273Z,-0.89
2023-03-07T01:37:52.271Z,-0.82
2023-03-07T01:41:09.197Z,-0.76
2023-03-07T01:44:29.464Z,-0.80
2023-03-07T01:47:46.295Z,-0.81
2023-03-07T01:51:03.234Z,-0.75
2023-03-07T01:54:23.421Z,-0.69
2023-03-07T01:57:44.303Z,-0.60
2023-03-07T02:01:01.272Z,-0.54
2023-03-07T02:04:23.319Z,-0.22
2023-03-07T02:07:44.894Z,-0.11
2023-03-07T02:11:01.878Z,0.13
2023-03-07T02:14:18.416Z,0.19
2023-03-07T02:17:34.669Z,0.21
2023-03-07T02:20:56.774Z,0.14
2023-03-07T02:24:20.864Z,0.19
2023-03-07T02:27:40.151Z,0.24
2023-03-07T02:31:09.786Z,0.19
2023-03-07T02:34:31.639Z,0.12
2023-03-07T02:38:03.657Z,0.03
2023-03-07T02:41:24.488Z,-0.19
2023-03-07T02:44:41.138Z,-0.25
2023-03-07T02:47:58.859Z,-0.32
2023-03-07T02:51:17.401Z,-0.52
2023-03-07T02:54:34.364Z,-0.60
2023-03-07T02:57:50.652Z,-0.57
2023-03-07T03:01:06.931Z,-0.55
2023-03-07T03:04:23.343Z,-0.51
2023-03-07T03:07:39.766Z,-0.51
2023-03-07T03:10:59.497Z,-0.55
2023-03-07T03:14:16.158Z,-0.62
2023-03-07T03:17:33.091Z,-0.67
2023-03-07T03:20:50.576Z,-0.58
2023-03-07T03:24:12.358Z,-0.58
2023-03-07T03:27:29.148Z,-0.66
2023-03-07T03:30:46.756Z,-0.70
2023-03-07T03:34:05.897Z,-0.88
2023-03-07T03:37:22.736Z,-0.78
2023-03-07T03:40:39.205Z,-0.84
2023-03-07T03:43:58.145Z,-0.80
2023-03-07T03:47:15.574Z,-0.85
2023-03-07T03:50:31.902Z,-0.85
2023-03-07T03:53:49.605Z,-0.80
2023-03-07T03:57:06.149Z,-0.80
2023-03-07T04:00:24.718Z,-0.83
2023-03-07T04:03:43.348Z,-0.87
2023-03-07T04:06:59.550Z,-0.79
2023-03-07T04:10:18.217Z,-0.80
2023-03-07T04:13:35.182Z,-0.76
2023-03-07T04:16:52.553Z,-0.70
2023-03-07T04:20:11.585Z,-0.70
2023-03-07T04:23:29.769Z,-0.73
2023-03-07T04:26:46.062Z,-0.73
2023-03-07T04:30:03.698Z,-0.67
2023-03-07T04:33:20.814Z,-0.66
2023-03-07T04:36:38.048Z,-0.60
2023-03-07T04:39:54.303Z,-0.53
2023-03-07T04:43:12.701Z,-0.48
2023-03-07T04:46:29.253Z,-0.38
2023-03-07T04:49:45.971Z,0.00
2023-03-07T04:53:02.228Z,0.09
2023-03-07T04:56:22.232Z,0.38
2023-03-07T04:59:40.295Z,0.69
2023-03-07T05:02:57.598Z,0.79
2023-03-07T05:06:18.629Z,0.89
2023-03-07T05:09:39.100Z,1.02
2023-03-07T05:12:55.374Z,1.11
2023-03-07T05:16:12.973Z,1.21
2023-03-07T05:19:31.361Z,1.25
2023-03-07T05:22:49.118Z,1.26
2023-03-07T05:26:05.534Z,1.35
2023-03-07T05:29:21.678Z,1.38
2023-03-07T05:32:37.888Z,1.43
2023-03-07T05:35:56.368Z,1.42
2023-03-07T05:39:12.668Z,1.45
2023-03-07T05:42:28.981Z,1.51
2023-03-07T05:45:45.092Z,1.55
2023-03-07T05:49:02.244Z,1.58
2023-03-07T05:52:18.781Z,1.62
2023-03-07T05:55:35.751Z,1.66
2023-03-07T05:58:52.109Z,1.72
2023-03-07T06:02:08.228Z,1.76
2023-03-07T06:05:25.500Z,1.82
2023-03-07T06:08:41.806Z,1.81
2023-03-07T06:11:57.962Z,1.85
2023-03-07T06:15:16.179Z,1.86
2023-03-07T06:18:34.044Z,1.93
2023-03-07T06:21:51.456Z,1.97
2023-03-07T06:25:08.011Z,2.00
2023-03-07T06:28:24.252Z,2.05
2023-03-07T06:31:40.430Z,2.14
2023-03-07T06:34:57.133Z,2.20
2023-03-07T06:38:14.507Z,2.30
2023-03-07T06:41:32.641Z,2.41
2023-03-07T06:44:51.159Z,2.55
2023-03-07T06:48:07.879Z,2.73
2023-03-07T06:51:26.067Z,2.85
2023-03-07T06:54:44.130Z,2.98
2023-03-07T06:58:02.785Z,3.17
2023-03-07T07:01:25.673Z,3.37
2023-03-07T07:04:42.543Z,3.65
2023-03-07T07:07:58.676Z,3.91
2023-03-07T07:11:15.373Z,4.12
2023-03-07T07:14:32.218Z,4.22
2023-03-07T07:17:49.033Z,4.50
2023-03-07T07:21:06.357Z,4.67
2023-03-07T07:24:25.069Z,5.02
2023-03-07T07:27:42.829Z,5.60
2023-03-07T07:30:59.784Z,5.78
2023-03-07T07:34:19.039Z,6.19
2023-03-07T07:37:36.477Z,6.35
2023-03-07T07:40:54.088Z,6.50
2023-03-07T07:44:10.769Z,6.53
2023-03-07T07:47:31.479Z,6.87
2023-03-07T07:50:49.206Z,7.26
2023-03-07T07:54:05.780Z,7.38
2023-03-07T07:57:22.826Z,7.64
2023-03-07T08:00:40.361Z,7.43
2023-03-07T08:04:00.283Z,7.22
2023-03-07T08:07:19.646Z,6.75
2023-03-07T08:10:36.459Z,6.24
2023-03-07T08:13:53.298Z,6.44
2023-03-07T08:17:09.949Z,6.16
2023-03-07T08:20:27.989Z,6.29
2023-03-07T08:23:47.296Z,6.21
2023-03-07T08:27:09.749Z,6.27
2023-03-07T08:30:31.591Z,6.23
2023-03-07T08:33:49.594Z,6.28
2023-03-07T08:37:10.963Z,6.29
2023-03-07T08:40:43.605Z,6.47
2023-03-07T08:44:10.955Z,6.24
2023-03-07T08:47:29.281Z,6.39
2023-03-07T08:50:47.545Z,6.45
2023-03-07T08:54:05.762Z,6.19
2023-03-07T08:57:22.310Z,6.35
2023-03-07T09:00:41.886Z,6.34
2023-03-07T09:03:58.494Z,6.32
2023-03-07T09:07:15.130Z,6.33
2023-03-07T09:10:33.361Z,6.44
2023-03-07T09:13:52.720Z,6.41
2023-03-07T09:17:12.665Z,6.45
2023-03-07T09:20:30.282Z,6.31
2023-03-07T09:23:46.653Z,6.40
2023-03-07T09:27:04.227Z,6.46
2023-03-07T09:30:23.518Z,6.29
2023-03-07T09:33:38.412Z,6.49
2023-03-07T09:36:54.395Z,6.46
2023-03-07T09:40:12.705Z,6.56
2023-03-07T09:43:32.729Z,6.74
2023-03-07T09:47:00.949Z,6.69
2023-03-07T09:50:25.794Z,6.83
2023-03-07T09:53:47.988Z,7.03
2023-03-07T09:57:06.891Z,7.05
2023-03-07T10:00:41.268Z,7.13
2023-03-07T10:04:08.249Z,7.34
2023-03-07T10:07:28.482Z,6.91
2023-03-07T10:10:49.900Z,6.78
2023-03-07T10:14:24.095Z,6.80
2023-03-07T10:17:57.275Z,6.89
2023-03-07T10:21:20.487Z,6.50
2023-03-07T10:24:56.663Z,6.59
2023-03-07T10:28:22.629Z,6.62
2023-03-07T10:31:44.206Z,6.57
2023-03-07T10:35:06.413Z,6.51
2023-03-07T10:38:32.865Z,6.49
2023-03-07T10:41:50.140Z,6.36
2023-03-07T10:45:06.721Z,6.46
2023-03-07T10:48:28.751Z,6.51
2023-03-07T10:51:59.349Z,6.53
2023-03-07T10:55:41.554Z,6.28
2023-03-07T10:59:16.556Z,6.12
2023-03-07T11:02:45.386Z,6.17
2023-03-07T11:06:07.678Z,6.14
2023-03-07T11:09:35.048Z,6.13
2023-03-07T11:12:55.731Z,6.11
2023-03-07T11:16:28.013Z,6.01
2023-03-07T11:19:51.365Z,5.96
2023-03-07T11:23:27.908Z,6.10
2023-03-07T11:26:49.959Z,6.26
2023-03-07T11:30:30.508Z,6.31
2023-03-07T11:34:00.184Z,6.49
2023-03-07T11:37:39.556Z,6.62
2023-03-07T11:41:02.309Z,6.73
2023-03-07T11:44:41.140Z,6.61
2023-03-07T11:48:03.025Z,6.67
2023-03-07T11:51:32.481Z,6.66
2023-03-07T11:54:54.773Z,6.75
2023-03-07T11:58:32.901Z,6.80
2023-03-07T12:01:56.188Z,6.66
2023-03-07T12:05:29.196Z,6.54
2023-03-07T12:09:04.544Z,6.47
2023-03-07T12:12:39.087Z,6.41
2023-03-07T12:16:01.933Z,6.34
2023-03-07T12:19:49.453Z,6.27
2023-03-07T12:23:16.254Z,6.36
2023-03-07T12:26:38.725Z,6.31
2023-03-07T12:30:00.513Z,6.51
2023-03-07T12:33:21.972Z,6.51
2023-03-07T12:36:46.778Z,6.35
2023-03-07T12:40:06.383Z,6.45
2023-03-07T12:43:26.610Z,6.40
2023-03-07T12:46:50.176Z,6.37
2023-03-07T12:50:14.283Z,6.46
2023-03-07T12:53:36.541Z,6.56
2023-03-07T12:57:00.770Z,6.58
2023-03-07T13:00:23.757Z,6.54
2023-03-07T13:07:26.713Z,6.41
2023-03-07T13:10:46.120Z,6.51
2023-03-07T13:14:05.816Z,6.48
2023-03-07T13:17:20.664Z,6.44
2023-03-07T13:21:10.380Z,6.45
2023-03-07T13:24:46.210Z,6.55
2023-03-07T13:28:04.076Z,6.66
2023-03-07T13:31:51.882Z,6.71
2023-03-07T13:35:08.119Z,6.66
2023-03-07T13:38:49.221Z,6.66
2023-03-07T13:42:05.418Z,6.73
2023-03-07T13:45:57.674Z,6.84
2023-03-07T13:49:14.926Z,6.77
2023-03-07T13:52:54.459Z,6.77
2023-03-07T13:56:12.067Z,6.78
2023-03-07T13:59:30.812Z,6.73
2023-03-07T14:02:48.739Z,6.63
2023-03-07T14:06:08.521Z,6.59
2023-03-07T14:09:28.319Z,6.52
2023-03-07T14:12:52.511Z,6.57
2023-03-07T14:16:26.003Z,6.55
2023-03-07T14:19:57.181Z,6.63
2023-03-07T14:23:23.265Z,6.57
2023-03-07T14:26:43.305Z,6.58
2023-03-07T14:30:04.446Z,6.57
2023-03-07T14:33:27.463Z,6.47
2023-03-07T14:36:45.800Z,6.51
2023-03-07T14:40:25.576Z,6.55
2023-03-07T14:43:57.238Z,6.63
2023-03-07T14:47:35.424Z,6.62
2023-03-07T14:50:53.720Z,6.58
2023-03-07T14:54:19.805Z,6.44
2023-03-07T14:57:41.839Z,6.43
2023-03-07T15:01:15.242Z,6.50
2023-03-07T15:04:39.412Z,6.47
2023-03-07T15:07:56.553Z,6.44
2023-03-07T15:11:17.906Z,6.43
2023-03-07T15:14:45.166Z,6.44
2023-03-07T15:18:05.975Z,6.39
2023-03-07T15:21:28.798Z,6.38
2023-03-07T15:24:49.209Z,6.38
2023-03-07T15:28:11.648Z,6.41
2023-03-07T15:31:32.802Z,6.46
2023-03-07T15:35:03.874Z,6.44
2023-03-07T15:38:31.428Z,6.48
2023-03-07T15:41:49.102Z,6.52
2023-03-07T15:45:09.405Z,6.50
2023-03-07T15:48:33.924Z,6.53
2023-03-07T15:51:57.032Z,6.44
2023-03-07T15:55:23.016Z,6.46
2023-03-07T15:58:42.283Z,6.43
2023-03-07T16:02:04.590Z,6.33
2023-03-07T16:05:46.130Z,6.31
2023-03-07T16:09:05.813Z,6.21
2023-03-07T16:12:57.638Z,6.17
2023-03-07T16:16:23.451Z,6.15
2023-03-07T16:19:39.812Z,6.10
2023-03-07T16:22:56.289Z,6.08
2023-03-07T16:26:17.020Z,6.03
2023-03-07T16:29:33.557Z,6.02
2023-03-07T16:32:50.797Z,5.94
2023-03-07T16:36:06.995Z,5.98
2023-03-07T16:39:23.712Z,5.92
2023-03-07T16:42:41.913Z,5.87
2023-03-07T16:46:01.172Z,5.85
2023-03-07T16:49:23.844Z,5.80
2023-03-07T16:52:39.944Z,5.76
2023-03-07T16:55:56.965Z,5.74
2023-03-07T16:59:15.261Z,5.75
2023-03-07T17:02:32.122Z,5.71
2023-03-07T17:05:48.689Z,5.64
2023-03-07T17:09:05.484Z,5.64
2023-03-07T17:12:23.013Z,5.63
2023-03-07T17:15:39.276Z,5.57
2023-03-07T17:18:58.497Z,5.56
2023-03-07T17:22:16.101Z,5.38
2023-03-07T17:25:33.592Z,5.38
2023-03-07T17:28:50.333Z,5.23
2023-03-07T17:32:06.717Z,5.19
2023-03-07T17:35:26.307Z,5.16
2023-03-07T17:38:48.044Z,4.99
2023-03-07T17:42:04.990Z,5.08
2023-03-07T17:45:22.638Z,5.03
2023-03-07T17:48:39.028Z,5.05
2023-03-07T17:51:55.064Z,5.00
2023-03-07T17:55:15.687Z,5.07
2023-03-07T17:58:31.787Z,5.10
2023-03-07T18:01:48.190Z,5.04
2023-03-07T18:05:04.887Z,4.98
2023-03-07T18:08:22.008Z,5.02
2023-03-07T18:11:41.166Z,5.07
2023-03-07T18:15:00.846Z,5.08
2023-03-07T18:18:17.801Z,5.01
2023-03-07T18:21:37.171Z,5.05
2023-03-07T18:24:55.969Z,5.02
2023-03-07T18:28:12.659Z,5.07
2023-03-07T18:31:33.488Z,5.03
2023-03-07T18:34:52.330Z,5.06
2023-03-07T18:38:10.319Z,5.07
2023-03-07T18:41:29.560Z,5.03
2023-03-07T18:44:48.761Z,5.06
2023-03-07T18:48:06.654Z,5.09
2023-03-07T18:51:27.767Z,5.07
2023-03-07T18:54:46.072Z,5.12
2023-03-07T18:58:04.356Z,5.15
2023-03-07T19:01:25.213Z,5.14
2023-03-07T19:04:44.320Z,5.09
2023-03-07T19:08:01.845Z,5.09
2023-03-07T19:11:22.681Z,5.07
2023-03-07T19:14:39.340Z,5.09
2023-03-07T19:17:58.101Z,5.07
2023-03-07T19:21:20.142Z,5.12
2023-03-07T19:24:37.772Z,5.17
2023-03-07T19:27:54.840Z,5.15
2023-03-07T19:31:19.753Z,5.17
2023-03-07T19:34:36.709Z,5.17
2023-03-07T19:37:53.958Z,5.21
2023-03-07T19:41:12.087Z,5.22
2023-03-07T19:44:28.381Z,5.24
2023-03-07T19:47:44.787Z,5.22
2023-03-07T19:51:02.788Z,5.27
2023-03-07T19:54:24.613Z,5.28
2023-03-07T19:57:43.370Z,5.26
2023-03-07T20:01:02.235Z,5.25
2023-03-07T20:04:20.834Z,5.28
2023-03-07T20:07:37.780Z,5.23
2023-03-07T20:11:04.059Z,5.29
2023-03-07T20:14:15.842Z,5.28
2023-03-07T20:17:32.196Z,5.28
2023-03-07T20:20:51.129Z,5.33
2023-03-07T20:24:08.304Z,5.33
2023-03-07T20:27:26.115Z,5.29
2023-03-07T20:30:42.997Z,5.32
2023-03-07T20:33:59.698Z,5.32
2023-03-07T20:37:16.460Z,5.33
2023-03-07T20:40:34.676Z,5.31
2023-03-07T20:43:51.598Z,5.29
2023-03-07T20:47:08.205Z,5.29
2023-03-07T20:50:25.367Z,5.22
2023-03-07T20:53:42.120Z,5.23
2023-03-07T20:56:58.694Z,5.17
2023-03-07T21:00:19.767Z,5.19
2023-03-07T21:03:37.261Z,5.15
2023-03-07T21:06:56.362Z,5.12
2023-03-07T21:10:13.518Z,5.18
2023-03-07T21:13:29.726Z,5.18
2023-03-07T21:16:46.281Z,5.20
2023-03-07T21:20:05.567Z,5.24
2023-03-07T21:23:22.201Z,5.19
2023-03-07T21:26:40.609Z,5.18
2023-03-07T21:29:56.656Z,5.17
2023-03-07T21:33:12.881Z,5.18
2023-03-07T21:36:30.089Z,5.16
2023-03-07T21:39:46.908Z,5.20
2023-03-07T21:43:02.957Z,5.23
2023-03-07T21:46:21.437Z,5.28
2023-03-07T21:49:40.568Z,5.30
2023-03-07T21:52:56.942Z,5.33
2023-03-07T21:56:17.875Z,5.39
2023-03-07T21:59:34.226Z,5.42
2023-03-07T22:02:51.097Z,5.42
2023-03-07T22:06:12.660Z,5.45
2023-03-07T22:09:29.206Z,5.44
2023-03-07T22:12:48.410Z,5.42
2023-03-07T22:16:08.590Z,5.43
2023-03-07T22:19:25.027Z,5.41
2023-03-07T22:22:41.315Z,5.37
2023-03-07T22:25:57.724Z,5.39
2023-03-07T22:29:14.501Z,5.37
2023-03-07T22:32:32.104Z,5.36
2023-03-07T22:35:48.824Z,5.34
2023-03-07T22:39:08.050Z,5.31
2023-03-07T22:42:24.358Z,5.30
2023-03-07T22:45:40.542Z,5.28
2023-03-07T22:48:59.066Z,5.30
2023-03-07T22:52:15.675Z,5.28
2023-03-07T22:55:33.359Z,5.29
2023-03-07T22:58:49.731Z,5.29
2023-03-07T23:02:05.905Z,5.32
2023-03-07T23:05:22.529Z,5.37
2023-03-07T23:08:38.730Z,5.39
2023-03-07T23:11:55.095Z,5.42
2023-03-07T23:15:12.108Z,5.39
2023-03-07T23:18:28.350Z,5.41
2023-03-07T23:21:45.485Z,5.38
2023-03-07T23:25:01.618Z,5.31
2023-03-07T23:28:18.030Z,5.33
2023-03-07T23:31:37.049Z,5.35
2023-03-07T23:34:53.119Z,5.35
2023-03-07T23:38:10.108Z,5.34
2023-03-07T23:41:26.367Z,5.37
2023-03-07T23:44:42.579Z,5.39
2023-03-07T23:47:59.715Z,5.49
2023-03-07T23:51:17.346Z,5.56
2023-03-07T23:54:34.130Z,5.62
2023-03-07T23:57:51.625Z,5.70
